createdAt,value
2018-06-14T00:00:49.897Z,12.80
2018-06-14T00:03:26.491Z,12.90
2018-06-14T00:06:03.078Z,12.70
2018-06-14T00:08:40.212Z,12.60
2018-06-14T00:13:52.670Z,12.70
2018-06-14T00:16:32.270Z,12.80
2018-06-14T00:19:08.453Z,12.80
2018-06-14T00:21:45.565Z,12.80
2018-06-14T00:24:22.225Z,12.80
2018-06-14T00:27:02.071Z,12.80
2018-06-14T00:29:40.883Z,12.80
2018-06-14T00:32:22.851Z,12.90
2018-06-14T00:35:01.766Z,12.90
2018-06-14T00:37:43.583Z,12.90
2018-06-14T00:40:28.074Z,12.20
2018-06-14T00:43:05.754Z,12.30
2018-06-14T00:45:47.669Z,12.50
2018-06-14T00:48:23.325Z,12.50
2018-06-14T00:53:35.433Z,12.70
2018-06-14T00:56:19.347Z,12.70
2018-06-14T00:58:58.286Z,12.70
2018-06-14T01:01:38.706Z,12.70
2018-06-14T01:04:15.961Z,12.80
2018-06-14T01:06:51.507Z,12.80
2018-06-14T01:12:09.687Z,12.80
2018-06-14T01:14:45.683Z,12.70
2018-06-14T01:17:24.544Z,12.70
2018-06-14T01:20:02.109Z,12.60
2018-06-14T01:22:39.819Z,12.60
2018-06-14T01:25:15.994Z,11.90
2018-06-14T01:27:51.734Z,11.40
2018-06-14T01:30:28.942Z,11.50
2018-06-14T01:38:26.428Z,11.30
2018-06-14T01:43:39.711Z,11.90
2018-06-14T01:46:16.087Z,12.00
2018-06-14T01:51:27.034Z,12.00
2018-06-14T01:54:06.591Z,11.90
2018-06-14T01:56:45.835Z,11.80
2018-06-14T01:59:27.628Z,11.70
2018-06-14T02:02:06.287Z,11.40
2018-06-14T02:04:41.712Z,11.20
2018-06-14T02:07:19.388Z,11.50
2018-06-14T02:09:59.334Z,11.60
2018-06-14T02:12:36.344Z,11.70
2018-06-14T02:15:16.198Z,11.80
2018-06-14T02:17:50.535Z,11.90
2018-06-14T02:20:36.019Z,11.90
2018-06-14T02:25:48.016Z,11.90
2018-06-14T02:28:26.361Z,12.10
2018-06-14T02:31:12.138Z,12.00
2018-06-14T02:33:48.460Z,12.10
2018-06-14T02:36:24.274Z,12.20
2018-06-14T02:41:40.193Z,12.30
2018-06-14T02:44:14.806Z,12.40
2018-06-14T02:49:24.495Z,12.50
2018-06-14T02:54:33.359Z,12.50
2018-06-14T02:57:09.065Z,12.40
2018-06-14T02:59:43.932Z,12.50
2018-06-14T03:02:18.851Z,12.50
2018-06-14T03:04:54.335Z,12.50
2018-06-14T03:07:35.589Z,12.50
2018-06-14T03:10:10.177Z,12.40
2018-06-14T03:12:44.791Z,12.40
2018-06-14T03:15:19.683Z,12.40
2018-06-14T03:17:54.551Z,12.40
2018-06-14T03:20:30.223Z,12.40
2018-06-14T03:23:04.917Z,12.40
2018-06-14T03:28:14.260Z,12.50
2018-06-14T03:30:49.064Z,12.30
2018-06-14T03:33:23.620Z,12.10
2018-06-14T03:35:58.239Z,11.90
2018-06-14T03:38:32.617Z,11.90
2018-06-14T03:41:07.930Z,12.00
2018-06-14T03:43:43.200Z,12.10
2018-06-14T03:46:17.955Z,12.20
2018-06-14T03:48:53.419Z,12.20
2018-06-14T03:51:28.506Z,12.20
2018-06-14T03:54:04.055Z,12.00
2018-06-14T03:59:13.082Z,12.20
2018-06-14T04:01:47.515Z,12.10
2018-06-14T04:04:22.149Z,12.20
2018-06-14T04:06:56.712Z,12.20
2018-06-14T04:09:31.799Z,12.20
2018-06-14T04:12:09.976Z,11.70
2018-06-14T04:14:44.616Z,11.70
2018-06-14T04:17:21.893Z,11.80
2018-06-14T04:19:56.239Z,12.00
2018-06-14T04:22:30.956Z,11.90
2018-06-14T04:30:14.519Z,12.20
2018-06-14T04:32:49.108Z,12.20
2018-06-14T04:35:24.596Z,12.30
2018-06-14T04:37:59.666Z,12.40
2018-06-14T04:40:34.557Z,12.50
2018-06-14T04:43:09.324Z,12.50
2018-06-14T04:48:20.713Z,12.30
2018-06-14T04:50:55.333Z,12.40
2018-06-14T04:56:05.777Z,11.80
2018-06-14T04:58:40.339Z,11.90
2018-06-14T05:01:15.864Z,12.10
2018-06-14T05:03:51.551Z,12.30
2018-06-14T05:06:27.023Z,12.40
2018-06-14T05:09:01.811Z,12.50
2018-06-14T05:16:44.953Z,12.70
2018-06-14T05:19:19.680Z,12.80
2018-06-14T05:21:54.581Z,12.80
2018-06-14T05:27:03.758Z,12.80
2018-06-14T05:29:38.830Z,12.80
2018-06-14T05:34:47.624Z,12.70
2018-06-14T05:37:22.468Z,12.70
2018-06-14T05:42:31.475Z,12.90
2018-06-14T05:45:06.283Z,12.90
2018-06-14T05:47:40.980Z,12.90
2018-06-14T05:50:15.828Z,12.90
2018-06-14T05:52:50.454Z,12.90
2018-06-14T05:55:26.626Z,13.00
2018-06-14T05:58:01.440Z,13.20
2018-06-14T06:00:36.144Z,13.40
2018-06-14T06:03:10.999Z,13.50
2018-06-14T06:08:21.182Z,13.80
2018-06-14T06:10:55.924Z,13.80
2018-06-14T06:13:30.584Z,13.90
2018-06-14T06:16:05.275Z,13.90
2018-06-14T06:21:14.762Z,13.90
2018-06-14T06:23:49.612Z,13.80
2018-06-14T06:28:58.782Z,14.10
2018-06-14T06:31:33.316Z,14.00
2018-06-14T06:34:08.074Z,14.10
2018-06-14T06:39:17.188Z,14.20
2018-06-14T06:41:51.854Z,14.20
2018-06-14T06:47:00.543Z,14.30
2018-06-14T06:49:34.979Z,14.20
2018-06-14T06:52:09.462Z,14.40
2018-06-14T06:54:43.832Z,14.50
2018-06-14T06:59:52.514Z,14.50
2018-06-14T07:02:27.086Z,14.60
2018-06-14T07:05:01.677Z,14.60
2018-06-14T07:07:36.036Z,14.60
2018-06-14T07:10:10.525Z,14.80
2018-06-14T07:12:45.205Z,14.80
2018-06-14T07:17:53.960Z,14.70
2018-06-14T07:20:28.680Z,14.80
2018-06-14T07:23:03.469Z,15.10
2018-06-14T07:25:38.248Z,15.10
2018-06-14T07:28:13.080Z,15.20
2018-06-14T07:30:47.630Z,15.20
2018-06-14T07:33:22.580Z,15.30
2018-06-14T07:35:57.290Z,15.40
2018-06-14T07:38:32.066Z,15.40
2018-06-14T07:41:06.738Z,15.60
2018-06-14T07:43:41.613Z,15.40
2018-06-14T07:46:16.397Z,15.50
2018-06-14T07:48:51.170Z,15.60
2018-06-14T07:51:25.835Z,15.60
2018-06-14T07:54:00.847Z,15.40
2018-06-14T07:56:35.362Z,15.20
2018-06-14T07:59:09.870Z,15.20
2018-06-14T08:01:44.338Z,15.40
2018-06-14T08:04:18.921Z,15.50
2018-06-14T08:06:53.523Z,15.60
2018-06-14T08:09:28.045Z,15.70
2018-06-14T08:12:02.689Z,15.70
2018-06-14T08:14:37.673Z,15.80
2018-06-14T08:17:12.110Z,15.80
2018-06-14T08:19:46.660Z,15.60
2018-06-14T08:22:21.229Z,15.60
2018-06-14T08:24:55.799Z,15.80
2018-06-14T08:27:30.398Z,15.80
2018-06-14T08:30:05.291Z,15.90
2018-06-14T08:32:39.855Z,15.80
2018-06-14T08:35:14.309Z,15.80
2018-06-14T08:37:48.993Z,15.60
2018-06-14T08:40:23.785Z,15.30
2018-06-14T08:42:58.401Z,15.40
2018-06-14T08:45:33.012Z,15.50
2018-06-14T08:48:07.510Z,15.60
2018-06-14T08:50:42.082Z,15.60
2018-06-14T08:53:16.506Z,15.40
2018-06-14T08:55:50.946Z,15.60
2018-06-14T08:58:25.423Z,15.60
2018-06-14T09:01:00.116Z,15.70
2018-06-14T09:03:34.502Z,15.60
2018-06-14T09:06:09.153Z,15.60
2018-06-14T09:08:43.854Z,15.50
2018-06-14T09:11:18.839Z,15.50
2018-06-14T09:13:53.280Z,15.50
2018-06-14T09:16:27.694Z,15.70
2018-06-14T09:19:02.317Z,15.70
2018-06-14T09:21:36.789Z,15.70
2018-06-14T09:24:11.445Z,15.70
2018-06-14T09:26:45.849Z,15.60
2018-06-14T09:29:20.247Z,15.60
2018-06-14T09:31:54.790Z,15.60
2018-06-14T09:34:29.286Z,15.50
2018-06-14T09:37:04.014Z,15.40
2018-06-14T09:39:38.570Z,15.40
2018-06-14T09:42:13.123Z,15.30
2018-06-14T09:44:47.652Z,15.40
2018-06-14T09:47:22.297Z,15.40
2018-06-14T09:49:56.768Z,15.50
2018-06-14T09:52:31.386Z,15.70
2018-06-14T09:55:06.036Z,15.70
2018-06-14T10:00:14.765Z,15.60
2018-06-14T10:02:49.413Z,15.70
2018-06-14T10:05:24.186Z,15.80
2018-06-14T10:07:58.837Z,15.90
2018-06-14T10:10:33.347Z,15.90
2018-06-14T10:13:07.950Z,15.90
2018-06-14T10:15:42.669Z,15.90
2018-06-14T10:18:17.196Z,16.00
2018-06-14T10:20:52.113Z,16.10
2018-06-14T10:23:26.758Z,16.30
2018-06-14T10:26:01.431Z,16.60
2018-06-14T10:28:35.995Z,16.60
2018-06-14T10:31:10.636Z,16.60
2018-06-14T10:33:45.146Z,16.70
2018-06-14T10:41:28.417Z,16.90
2018-06-14T10:44:03.033Z,16.90
2018-06-14T10:46:37.635Z,16.90
2018-06-14T10:51:46.391Z,17.10
2018-06-14T10:54:21.025Z,17.10
2018-06-14T10:56:56.591Z,17.00
2018-06-14T10:59:31.121Z,17.00
2018-06-14T11:02:06.409Z,16.90
2018-06-14T11:04:41.095Z,17.10
2018-06-14T11:07:15.517Z,17.10
2018-06-14T11:09:50.189Z,17.00
2018-06-14T11:12:24.653Z,17.20
2018-06-14T11:14:59.082Z,17.20
2018-06-14T11:17:33.499Z,17.20
2018-06-14T11:20:07.936Z,17.40
2018-06-14T11:22:42.454Z,17.10
2018-06-14T11:25:16.874Z,17.00
2018-06-14T11:27:51.444Z,17.30
2018-06-14T11:30:26.001Z,17.30
2018-06-14T11:33:00.595Z,17.40
2018-06-14T11:35:35.277Z,17.30
2018-06-14T11:38:09.784Z,17.40
2018-06-14T11:43:18.520Z,18.00
2018-06-14T11:45:53.043Z,18.10
2018-06-14T11:48:27.725Z,18.00
2018-06-14T11:51:02.493Z,18.10
2018-06-14T11:56:11.283Z,18.50
2018-06-14T11:58:45.834Z,18.50
2018-06-14T12:01:20.402Z,18.20
2018-06-14T12:03:54.880Z,17.90
2018-06-14T12:06:29.436Z,18.10
2018-06-14T12:11:39.178Z,18.30
2018-06-14T12:16:48.379Z,18.50
2018-06-14T12:19:22.835Z,18.80
2018-06-14T12:27:06.165Z,18.60
2018-06-14T12:29:40.727Z,18.70
2018-06-14T12:32:15.374Z,18.50
2018-06-14T12:34:49.831Z,18.60
2018-06-14T12:37:24.470Z,18.60
2018-06-14T12:39:58.985Z,18.70
2018-06-14T12:42:33.768Z,18.60
2018-06-14T12:45:08.310Z,18.40
2018-06-14T12:47:42.814Z,18.40
2018-06-14T12:50:17.536Z,18.50
2018-06-14T12:52:52.295Z,18.50
2018-06-14T12:55:26.804Z,18.50
2018-06-14T12:58:01.526Z,18.60
2018-06-14T13:00:36.164Z,18.10
2018-06-14T13:03:10.677Z,18.40
2018-06-14T13:10:53.923Z,18.70
2018-06-14T13:13:28.662Z,18.80
2018-06-14T13:16:03.348Z,19.00
2018-06-14T13:18:38.005Z,19.00
2018-06-14T13:21:12.629Z,18.80
2018-06-14T13:23:47.112Z,18.90
2018-06-14T13:26:23.426Z,18.80
2018-06-14T13:28:57.957Z,18.70
2018-06-14T13:31:33.391Z,18.80
2018-06-14T13:34:07.890Z,18.70
2018-06-14T13:36:42.523Z,18.70
2018-06-14T13:39:17.227Z,18.70
2018-06-14T13:41:51.631Z,18.40
2018-06-14T13:57:18.603Z,18.20
2018-06-14T13:59:53.241Z,18.20
2018-06-14T14:02:27.798Z,18.40
2018-06-14T14:05:02.480Z,18.50
2018-06-14T14:07:37.125Z,18.50
2018-06-14T14:10:11.723Z,18.60
2018-06-14T14:15:20.526Z,19.20
2018-06-14T14:20:29.327Z,19.10
2018-06-14T14:23:03.980Z,19.30
2018-06-14T14:25:38.522Z,19.10
2018-06-14T14:28:12.992Z,19.10
2018-06-14T14:30:48.027Z,18.80
2018-06-14T14:33:22.468Z,18.80
2018-06-14T14:35:56.871Z,19.00
2018-06-14T14:38:31.216Z,19.00
2018-06-14T14:41:05.835Z,19.20
2018-06-14T14:43:40.110Z,19.40
2018-06-14T14:46:14.446Z,19.70
2018-06-14T14:51:23.057Z,19.50
2018-06-14T14:53:57.343Z,19.70
2018-06-14T14:56:31.738Z,20.30
2018-06-14T15:01:40.371Z,19.90
2018-06-14T15:04:14.783Z,19.90
2018-06-14T15:06:49.216Z,19.90
2018-06-14T15:09:23.508Z,20.00
2018-06-14T15:11:57.953Z,20.00
2018-06-14T15:14:32.303Z,20.10
2018-06-14T15:17:06.593Z,20.10
2018-06-14T15:19:40.983Z,20.30
2018-06-14T15:22:15.211Z,20.40
2018-06-14T15:24:49.530Z,20.40
2018-06-14T15:27:23.848Z,20.30
2018-06-14T15:29:58.182Z,20.30
2018-06-14T15:35:06.694Z,20.70
2018-06-14T15:37:41.148Z,20.50
2018-06-14T15:40:15.586Z,20.20
2018-06-14T15:42:49.871Z,19.90
2018-06-14T15:45:24.214Z,19.40
2018-06-14T15:47:58.701Z,19.40
2018-06-14T15:50:32.992Z,19.30
2018-06-14T15:53:07.473Z,19.30
2018-06-14T16:01:08.961Z,18.90
2018-06-14T16:03:43.198Z,18.90
2018-06-14T16:06:17.474Z,19.00
2018-06-14T16:08:52.309Z,19.10
2018-06-14T16:11:26.690Z,19.00
2018-06-14T16:14:01.036Z,19.20
2018-06-14T16:16:35.330Z,19.20
2018-06-14T16:19:09.745Z,19.30
2018-06-14T16:21:44.086Z,19.30
2018-06-14T16:24:18.399Z,19.20
2018-06-14T16:26:52.691Z,19.20
2018-06-14T16:29:27.098Z,19.10
2018-06-14T16:32:01.503Z,19.00
2018-06-14T16:34:35.893Z,19.00
2018-06-14T16:39:44.643Z,19.10
2018-06-14T16:42:19.194Z,19.00
2018-06-14T16:44:53.453Z,18.90
2018-06-14T16:47:27.875Z,19.00
2018-06-14T16:50:02.132Z,19.10
2018-06-14T16:52:36.617Z,19.10
2018-06-14T16:55:10.907Z,19.10
2018-06-14T16:57:45.307Z,19.10
2018-06-14T17:00:19.561Z,19.40
2018-06-14T17:02:53.995Z,20.20
2018-06-14T17:08:02.506Z,22.10
2018-06-14T17:13:11.007Z,23.80
2018-06-14T17:20:54.150Z,22.20
2018-06-14T17:23:28.620Z,22.20
2018-06-14T17:26:03.445Z,22.10
2018-06-14T17:28:38.207Z,21.80
2018-06-14T17:31:12.557Z,21.80
2018-06-14T17:33:46.931Z,21.70
2018-06-14T17:36:21.314Z,21.40
2018-06-14T17:38:55.653Z,20.80
2018-06-14T17:41:30.093Z,20.90
2018-06-14T17:44:04.898Z,20.70
2018-06-14T17:46:39.255Z,20.50
2018-06-14T17:51:47.708Z,20.50
2018-06-14T17:54:22.201Z,20.40
2018-06-14T17:59:30.662Z,20.00
2018-06-14T18:02:05.283Z,19.70
2018-06-14T18:04:39.557Z,19.70
2018-06-14T18:07:14.534Z,19.60
2018-06-14T18:12:23.690Z,19.50
2018-06-14T18:14:58.140Z,19.40
2018-06-14T18:17:32.572Z,19.40
2018-06-14T18:20:06.963Z,19.40
2018-06-14T18:22:41.385Z,19.20
2018-06-14T18:25:15.805Z,19.20
2018-06-14T18:30:24.240Z,19.10
2018-06-14T18:32:58.519Z,19.10
2018-06-14T18:35:32.920Z,19.00
2018-06-14T18:38:07.219Z,19.00
2018-06-14T18:43:15.737Z,19.00
2018-06-14T18:45:50.207Z,19.10
2018-06-14T18:48:24.603Z,19.10
2018-06-14T18:50:59.076Z,18.90
2018-06-14T18:53:33.580Z,18.80
2018-06-14T18:56:07.845Z,18.90
2018-06-14T18:58:42.591Z,18.80
2018-06-14T19:01:17.070Z,18.80
2018-06-14T19:03:51.834Z,18.70
2018-06-14T19:06:26.279Z,18.50
2018-06-14T19:09:00.624Z,18.30
2018-06-14T19:11:35.069Z,18.30
2018-06-14T19:14:09.782Z,18.20
2018-06-14T19:16:44.232Z,18.10
2018-06-14T19:19:18.662Z,18.00
2018-06-14T19:21:52.985Z,17.90
2018-06-14T19:24:27.455Z,17.80
2018-06-14T19:27:01.864Z,17.80
2018-06-14T19:29:36.801Z,17.80
2018-06-14T19:32:11.216Z,17.70
2018-06-14T19:34:45.628Z,17.60
2018-06-14T19:37:19.931Z,17.40
2018-06-14T19:39:54.354Z,17.00
2018-06-14T19:42:29.641Z,16.50
2018-06-14T19:45:04.181Z,15.90
2018-06-14T19:47:38.697Z,15.20
2018-06-14T19:50:12.986Z,15.00
2018-06-14T19:52:47.237Z,15.40
2018-06-14T19:55:21.660Z,15.60
2018-06-14T19:57:56.146Z,15.60
2018-06-14T20:00:30.506Z,15.90
2018-06-14T20:03:04.814Z,16.10
2018-06-14T20:08:13.347Z,16.20
2018-06-14T20:10:47.786Z,15.60
2018-06-14T20:13:22.231Z,15.20
2018-06-14T20:15:56.730Z,15.00
2018-06-14T20:18:31.020Z,15.10
2018-06-14T20:21:05.435Z,15.40
2018-06-14T20:23:39.809Z,15.50
2018-06-14T20:26:14.097Z,15.70
2018-06-14T20:28:48.419Z,15.80
2018-06-14T20:33:56.886Z,15.90
2018-06-14T20:36:31.459Z,15.80
2018-06-14T20:41:41.516Z,16.00
2018-06-14T20:44:15.893Z,15.70
2018-06-14T20:46:50.285Z,15.50
2018-06-14T20:49:24.652Z,15.20
2018-06-14T20:51:59.227Z,15.00
2018-06-14T20:54:33.666Z,15.10
2018-06-14T20:57:08.140Z,15.10
2018-06-14T20:59:42.559Z,15.10
2018-06-14T21:02:17.045Z,15.40
2018-06-14T21:07:25.590Z,15.70
2018-06-14T21:10:01.316Z,15.70
2018-06-14T21:12:35.648Z,15.90
2018-06-14T21:15:09.958Z,15.90
2018-06-14T21:17:44.339Z,15.60
2018-06-14T21:20:18.755Z,15.10
2018-06-14T21:25:27.073Z,14.30
2018-06-14T21:28:01.433Z,14.10
2018-06-14T21:30:35.988Z,14.40
2018-06-14T21:33:11.354Z,14.70
2018-06-14T21:38:19.876Z,15.10
2018-06-14T21:40:54.209Z,15.20
2018-06-14T21:43:28.599Z,15.20
2018-06-14T21:46:05.197Z,15.10
2018-06-14T21:48:39.703Z,15.10
2018-06-14T21:51:14.061Z,15.20
2018-06-14T21:53:48.479Z,15.30
2018-06-14T21:58:57.848Z,15.40
2018-06-14T22:01:32.319Z,15.30
2018-06-14T22:04:06.808Z,15.30
2018-06-14T22:06:41.198Z,15.30
2018-06-14T22:09:15.573Z,15.10
2018-06-14T22:11:50.165Z,15.10
2018-06-14T22:19:38.778Z,15.00
2018-06-14T22:22:13.360Z,15.00
2018-06-14T22:24:47.980Z,15.10
2018-06-14T22:27:22.633Z,15.00
2018-06-14T22:35:21.022Z,14.90
2018-06-14T22:37:55.928Z,14.90
2018-06-14T22:43:06.389Z,14.80
2018-06-14T22:48:19.269Z,14.80
2018-06-14T22:53:35.918Z,14.70
2018-06-14T22:56:10.417Z,14.60
2018-06-14T22:58:45.221Z,14.60
2018-06-14T23:01:50.528Z,14.60
2018-06-14T23:04:27.113Z,14.60
2018-06-14T23:07:01.446Z,14.50
2018-06-14T23:10:45.284Z,14.40
2018-06-14T23:13:19.816Z,14.40
2018-06-14T23:15:54.139Z,14.30
2018-06-14T23:23:36.833Z,14.20
2018-06-14T23:26:11.169Z,14.10
2018-06-14T23:28:45.507Z,14.10
2018-06-14T23:31:20.003Z,14.10
2018-06-14T23:33:54.337Z,14.10
2018-06-14T23:36:28.691Z,14.10
2018-06-14T23:39:03.327Z,14.00
2018-06-14T23:41:37.684Z,13.80
2018-06-14T23:46:46.214Z,13.20
2018-06-14T23:49:20.669Z,13.10
2018-06-14T23:51:54.993Z,13.30
2018-06-14T23:54:29.412Z,13.40
2018-06-14T23:57:04.028Z,13.40
2018-06-14T23:59:38.511Z,13.40
